x

Portage Canal, Mi (pclm4) Weather Station

9:40am - Thu 30th Oct 2014 All times are CDT. -5 hours from GMT.

  • Wind
    14mph, 16mph gusts
  • Air Temp 42°f
  • Sea Pressure 1017.3mb
  • Portage Canal, Mi
  • Portage Canal, Mi

More Historic Weather Station data

Upgrade to MSW Pro to gain access to the past 30 days of data for over 8000 Wavebouys and Weather Stations around the globe.

Join Pro

Comparision Forecast

View Surf forecast
   
Thu 10/30 9:40am 14 16 mph 1017.3mb 42f
9:30am 10 13 mph 1017.3mb 42f
9:20am 9 11 mph 1017.3mb 42f
9:10am 9 11 mph 1017.3mb 42f
9:00am 10 13 mph 1017.3mb 42f
8:40am 11 15 mph 1017.3mb 42f
8:30am 15 16 mph 1017.3mb 42f
8:20am 14 16 mph 1017.3mb 42f
8:10am 6 15 mph 1017.3mb 41f
8:00am 11 15 mph 1017.3mb 42f
7:40am 7 10 mph 1017.3mb 40f
7:30am 1 7 mph 1017.3mb 39f
7:20am 3 6 mph 1017.3mb 39f
7:10am 3 5 mph 1017.3mb 39f
7:00am 6 9 mph 1017.3mb 39f
6:40am 2 5 mph 1017.3mb 39f
6:30am  -  6 mph 1017.3mb 39f
6:20am 3 6 mph 1017.3mb 39f
6:10am 3 7 mph 1017.3mb 39f
6:00am 3 7 mph 1017.3mb 39f
5:40am 3 6 mph 1017.3mb 40f
5:30am 5 9 mph 1017.3mb 40f
5:20am 7 10 mph 1017.6mb 40f
5:10am 8 11 mph 1017.6mb 40f
5:00am 7 9 mph 1017.3mb 40f
4:40am 6 11 mph 1017.3mb 40f
4:30am 6 13 mph 1017.3mb 42f
4:20am 9 14 mph 1017.3mb 40f
4:10am 3 13 mph 1017.3mb 40f
4:00am 7 14 mph 1017.3mb 40f
3:40am 5 8 mph 1017.3mb 40f
3:30am 5 7 mph 1017.6mb 40f
3:20am 3 7 mph 1017.6mb 40f
3:10am  -  7 mph 1017.6mb 40f
3:00am 3 11 mph 1017.6mb 41f
2:40am 11 14 mph 1017.6mb 42f
2:30am 8 10 mph 1017.6mb 42f
2:20am 8 10 mph 1017.6mb 42f
2:10am 9 13 mph 1017.6mb 42f
2:00am 7 11 mph 1017.9mb 42f
1:40am 7 10 mph 1017.9mb 43f
1:30am 10 13 mph 1017.9mb 43f
1:20am 11 16 mph 1017.9mb 43f
1:10am 11 17 mph 1017.9mb 43f
1:00am 8 13 mph 1017.9mb 43f
12:40am 3 6 mph 1017.9mb 42f
12:30am 2 8 mph 1017.9mb 43f
12:20am 9 10 mph 1017.9mb 44f
12:10am 8 11 mph 1017.9mb 44f
12:00am 11 13 mph 1017.9mb 44f
Wed 10/29 11:40pm 8 9 mph 1018.3mb 44f
11:30pm 8 9 mph 1018.3mb 44f
11:20pm 8 10 mph 1018.3mb 44f
11:10pm 8 10 mph 1017.9mb 44f
11:00pm 8 10 mph 1018.3mb 44f
10:40pm 9 10 mph 1018.3mb 44f
10:30pm 9 11 mph 1018.3mb 44f
10:20pm 9 10 mph 1018.3mb 44f
10:10pm 9 10 mph 1018.3mb 44f
10:00pm 9 11 mph 1018.3mb 44f
9:40pm 10 14 mph 1018.3mb 44f
9:30pm 10 14 mph 1018.3mb 44f
9:20pm 9 14 mph 1018.3mb 44f
9:10pm 10 13 mph 1018.3mb 44f
9:00pm 9 14 mph 1018.3mb 44f
8:40pm 10 14 mph 1018.3mb 43f
8:30pm 9 13 mph 1018.3mb 43f
8:20pm 10 14 mph 1018.3mb 43f
8:10pm 10 14 mph 1018.3mb 43f
8:00pm 13 14 mph 1018.3mb 43f
7:40pm 9 11 mph 1018.3mb 43f
7:30pm 7 9 mph 1018.3mb 43f
7:20pm 8 13 mph 1018.3mb 42f
7:10pm 8 10 mph 1018.3mb 42f
7:00pm 9 11 mph 1018.3mb 42f
6:40pm 9 13 mph 1018.3mb 42f
6:30pm 9 13 mph 1018.3mb 42f
6:20pm 9 10 mph 1018.3mb 42f
6:10pm 9 17 mph 1018.3mb 42f
6:00pm 13 15 mph 1018.3mb 42f
5:40pm 10 14 mph 1018.3mb 42f
5:30pm 13 16 mph 1018.3mb 42f
5:20pm 9 14 mph 1018.3mb 42f
5:10pm 13 16 mph 1018.3mb 42f
5:00pm 10 16 mph 1018.3mb 42f
4:40pm 13 16 mph 1018.3mb 42f
4:30pm 13 18 mph 1017.9mb 42f
4:20pm 17 20 mph 1018.3mb 42f
4:10pm 11 16 mph 1018.3mb 42f
4:00pm 11 15 mph 1017.9mb 42f
3:40pm 11 16 mph 1017.9mb 42f
3:30pm 14 17 mph 1017.9mb 42f
3:20pm 10 15 mph 1017.9mb 42f
3:10pm 13 15 mph 1017.9mb 42f
3:00pm 11 15 mph 1017.9mb 42f
2:40pm 13 16 mph 1017.6mb 42f
2:30pm 15 17 mph 1017.6mb 42f
2:20pm 14 16 mph 1017.6mb 42f
2:10pm 11 16 mph 1017.6mb 42f
2:00pm 14 17 mph 1017.6mb 42f
1:40pm 16 18 mph 1017.6mb 42f
1:30pm 11 16 mph 1017.6mb 42f
1:20pm 11 16 mph 1017.3mb 42f
1:10pm 14 16 mph 1017.3mb 42f
1:00pm 11 15 mph 1017.3mb 41f
12:40pm 15 18 mph 1017.3mb 42f
12:30pm 14 17 mph 1017.6mb 42f
12:20pm 14 17 mph 1017.6mb 42f
12:10pm 11 16 mph 1017.3mb 42f
12:00pm 13 17 mph 1017.3mb 41f
11:40am 15 17 mph 1017.3mb 41f
11:30am 14 18 mph 1016.9mb 42f
11:20am 15 18 mph 1016.9mb 42f
11:10am 15 18 mph 1016.6mb 42f
11:00am 13 16 mph 1016.6mb 41f
10:40am 14 17 mph 1016.6mb 42f
10:30am 15 17 mph 1016.6mb 41f
10:20am 15 18 mph 1016.3mb 41f
10:10am 16 18 mph 1016.3mb 42f
10:00am 16 21 mph 1015.9mb 42f
9:50am 16 18 mph 1015.9mb 42f
9:40am 14 18 mph 1015.9mb 41f
9:30am 14 18 mph 1015.6mb 41f
9:20am 14 18 mph 1015.6mb 41f
9:10am 15 21 mph 1015.2mb 41f
9:00am 14 21 mph 1015.2mb 41f
8:50am 16 20 mph 1014.9mb 41f
8:40am 15 22 mph 1014.6mb 41f
8:30am 15 24 mph 1014.6mb 40f
8:20am 15 23 mph 1014.6mb 41f
8:10am 18 23 mph 1014.2mb 41f
8:00am 17 23 mph 1014.2mb 41f
7:50am 18 26 mph 1013.9mb 41f
7:40am 20 24 mph 1013.9mb 41f
7:30am 17 26 mph 1013.5mb 40f
7:20am 21 29 mph 1013.5mb 40f
7:10am 20 28 mph 1013.2mb 40f
7:00am 24 29 mph 1013.2mb 40f
6:50am 20 25 mph 1012.9mb 41f
6:40am 20 25 mph 1012.9mb 41f
6:30am 20 25 mph 1012.9mb 41f
6:20am 20 24 mph 1012.5mb 41f
6:10am 18 24 mph 1012.5mb 41f
6:00am 18 23 mph 1012.2mb 41f
5:50am 18 25 mph 1012.2mb 41f
5:40am 20 24 mph 1011.9mb 41f
5:30am 18 26 mph 1011.9mb 41f
5:20am 21 25 mph 1011.5mb 41f
5:10am 21 25 mph 1011.2mb 41f
5:00am 20 28 mph 1011.2mb 41f
4:50am 20 24 mph 1010.8mb 41f
4:40am 22 28 mph 1010.8mb 41f
4:30am 21 25 mph 1010.5mb 41f
4:20am 22 28 mph 1010.5mb 41f
4:10am 20 25 mph 1010.2mb 40f
4:00am 21 26 mph 1009.8mb 41f
3:50am 17 24 mph 1009.8mb 41f
3:40am 20 26 mph 1009.5mb 41f
3:30am 18 24 mph 1009.1mb 41f
3:20am 20 23 mph 1009.1mb 41f
3:10am 18 22 mph 1008.8mb 42f
3:00am 18 25 mph 1008.8mb 42f
2:50am 20 23 mph 1008.5mb 41f
2:40am 20 23 mph 1008.5mb 41f
2:30am 17 23 mph 1008.1mb 41f
2:20am 20 23 mph 1008.1mb 41f
2:10am 21 24 mph 1007.8mb 41f
2:00am 17 23 mph 1007.5mb 41f
1:50am 18 24 mph 1007.5mb 41f
1:40am 21 24 mph 1007.1mb 41f
1:30am 18 23 mph 1007.1mb 41f
1:20am 20 24 mph 1006.8mb 41f
1:10am 18 23 mph 1006.8mb 41f
1:00am 21 23 mph 1006.8mb 41f
12:50am 20 23 mph 1006.4mb 41f
12:40am 18 22 mph 1006.4mb 41f
12:30am 18 23 mph 1006.4mb 41f
12:20am 21 24 mph 1006.1mb 41f
12:10am 22 25 mph 1006.1mb 41f
12:00am 18 22 mph 1006.1mb 41f
Tue 10/28 11:50pm 18 24 mph 1005.8mb 40f
11:40pm 21 25 mph 1005.8mb 41f
11:30pm 20 31 mph 1005.8mb 41f
11:20pm 28 32 mph 1005.4mb 43f
11:10pm 25 33 mph 1005.4mb 43f
11:00pm 26 34 mph 1005.4mb 44f
10:50pm 25 32 mph 1005.4mb 44f
10:48pm 24 32 mph 1005.1mb 44f
10:40pm 25 33 mph 1005.1mb 44f
10:30pm 24 33 mph 1005.1mb 44f
10:20pm 21 32 mph 1005.1mb 44f
10:10pm 25 36 mph 1005.1mb 44f
10:00pm 24 34 mph 1005.1mb 44f
9:50pm 23 34 mph 1004.7mb 44f
9:47pm 22 29 mph 1004.7mb 44f
9:40pm 24 34 mph 1004.7mb 44f
9:30pm 29 37 mph 1004.4mb 44f
9:20pm 24 33 mph 1004.4mb 44f
9:10pm 26 39 mph 1004.4mb 44f
9:00pm 30 37 mph 1004.4mb 45f
8:50pm 28 37 mph 1004.4mb 45f
8:46pm 28 29 mph 1004.1mb 45f
8:40pm 25 37 mph 1004.4mb 45f
8:30pm 29 37 mph 1004.4mb 45f
8:20pm 22 34 mph 1004.4mb 45f
8:10pm 26 37 mph 1004.1mb 45f
8:00pm 30 36 mph 1004.1mb 45f
7:50pm 24 39 mph 1004.1mb 45f
7:46pm 22 30 mph 1004.1mb 45f
7:40pm 26 34 mph 1003.7mb 45f
7:30pm 26 36 mph 1004.1mb 46f
7:20pm 23 37 mph 1003.7mb 46f
7:10pm 29 37 mph 1003.7mb 46f
7:00pm 22 33 mph 1003.7mb 46f
6:50pm 24 36 mph 1003.7mb 46f
6:45pm 18 30 mph 1003.4mb 46f
6:40pm 20 26 mph 1003.4mb 46f
6:30pm 18 29 mph 1003.4mb 46f
6:20pm 16 24 mph 1003.4mb 46f
6:10pm 17 24 mph 1003mb 46f
6:00pm 17 30 mph 1003mb 46f
5:50pm 16 33 mph 1003mb 46f
5:40pm 20 31 mph 1003mb 46f
5:30pm 22 33 mph 1003mb 46f
5:21pm 22 31 mph 1002.7mb 46f
5:20pm 22 28 mph 1002.7mb 46f
5:10pm 15 23 mph 1002.7mb 45f
5:00pm 18 29 mph 1002.7mb 45f
4:50pm 23 31 mph 1002.4mb 46f
4:40pm 22 26 mph 1002.4mb 46f
4:30pm 23 32 mph 1002.4mb 45f
4:20pm 29 36 mph 1002.4mb 46f
4:16pm 17 30 mph 1002mb 46f
4:10pm 13 17 mph 1002mb 46f
4:00pm 14 20 mph 1002mb 46f
3:50pm 14 21 mph 1002mb 46f
3:40pm 15 25 mph 1001.7mb 46f
3:30pm 15 22 mph 1001.7mb 46f
3:20pm 14 21 mph 1001.7mb 46f
3:10pm 15 22 mph 1001.7mb 46f
3:00pm 16 23 mph 1001.4mb 46f
2:50pm 16 24 mph 1001.4mb 46f
2:40pm 18 26 mph 1001.4mb 46f
2:30pm 17 31 mph 1001.4mb 47f
2:20pm 16 25 mph 1001.4mb 47f
2:10pm 21 28 mph 1001.4mb 47f
2:00pm 22 33 mph 1001.4mb 47f
1:50pm 21 33 mph 1001.4mb 46f
1:40pm 21 30 mph 1001mb 46f
1:30pm 23 29 mph 1001mb 46f
1:20pm 23 30 mph 1001mb 46f
1:10pm 23 30 mph 1001mb 46f
1:00pm 21 30 mph 1001mb 46f
12:50pm 25 32 mph 1001mb 46f
12:40pm 25 30 mph 1001mb 46f
12:34pm 21 29 mph 1001mb 46f
12:30pm 18 28 mph 1001mb 46f
12:20pm 14 23 mph 1001mb 46f
12:10pm 15 25 mph 1001mb 46f
12:00pm 17 23 mph 1000.7mb 46f
11:50am 14 25 mph 1000.7mb 46f
11:40am 17 25 mph 1001mb 46f
11:30am 20 24 mph 1001mb 46f
11:20am 16 24 mph 1000.7mb 46f
11:10am 15 23 mph 1000.7mb 46f
11:00am 17 23 mph 1000.7mb 46f
10:50am 16 24 mph 1000.7mb 46f
10:40am 18 22 mph 1000.7mb 46f
10:30am 13 21 mph 1000.7mb 46f
10:20am 15 21 mph 1000.7mb 46f
10:10am 14 20 mph 1000.7mb 46f
10:00am 14 22 mph 1000.7mb 46f
9:50am 20 24 mph 1000.7mb 46f
9:40am 17 22 mph 1000.7mb 46f
9:30am 18 28 mph 1000.7mb 46f
9:20am 18 24 mph 1000.7mb 46f
9:10am 17 24 mph 1000.7mb 46f
9:00am 17 25 mph 1000.7mb 46f
8:50am 16 23 mph 1000.3mb 46f
8:40am 17 22 mph 1000.3mb 46f
8:30am 16 22 mph 1000.3mb 46f
8:20am 14 21 mph 1000.3mb 46f
8:10am 16 21 mph 1000.3mb 46f
8:00am 16 21 mph 1000.3mb 46f
7:50am 13 18 mph 1000.3mb 46f
7:40am 15 17 mph 1000.3mb 46f
7:30am 15 18 mph 1000.3mb 46f
7:20am 10 16 mph 1000.3mb 46f
7:10am 11 15 mph 1000.3mb 47f
7:00am 11 14 mph 1000mb 47f
6:50am 6 13 mph 1000mb 46f
6:40am 3 7 mph 1000mb 45f
6:30am 2 6 mph 1000mb 45f
6:20am 2 3 mph 1000mb 46f
6:10am 2 3 mph 1000.3mb 46f
6:00am 1 5 mph 1000.3mb 46f
5:50am 3 6 mph 1000.3mb 46f
5:40am 2 3 mph 1000.3mb 46f
5:30am 2 5 mph 1000.7mb 46f
5:20am 3 5 mph 1000.7mb 46f
5:10am 1 2 mph 1000.3mb 46f
5:00am  -  1 mph 1000.3mb 46f
4:50am  -  mph 1000.3mb 46f
4:40am  -  2 mph 1001mb 46f
4:30am  -  1 mph 1001mb 46f
4:20am 1 2 mph 1001mb 46f
4:10am  -  2 mph 1001mb 46f
4:00am  -  2 mph 1001.4mb 46f
3:50am 2 3 mph 1001.4mb 46f
3:40am 1 2 mph 1001mb 46f
3:30am  -  2 mph 1001mb 46f
3:20am 2 3 mph 1001mb 46f
3:10am 2 3 mph 1001mb 46f
3:00am  -  3 mph 1001mb 46f
2:50am  -  3 mph 1001.4mb 46f
2:40am 1 3 mph 1001.4mb 46f
2:30am 1 5 mph 1001.4mb 46f
2:20am 2 3 mph 1001.4mb 46f
2:10am 2 3 mph 1001.4mb 46f
2:00am  -  3 mph 1001.4mb 46f
1:50am 2 5 mph 1001.4mb 46f
1:40am 2 5 mph 1001.4mb 46f
1:30am 2 9 mph 1001mb 46f
1:20am 5 7 mph 1001.4mb 46f
1:10am 3 6 mph 1001.7mb 46f
1:00am 3 6 mph 1001.7mb 46f
12:50am 5 7 mph 1001.4mb 46f
12:40am 5 8 mph 1001.7mb 46f
12:30am 5 8 mph 1002.4mb 46f
12:20am 5 9 mph 1002.4mb 46f
12:10am 6 9 mph 1002.4mb 46f
12:00am 5 10 mph 1002.4mb 46f
Mon 10/27 11:50pm 7 11 mph 1002.7mb 46f
11:40pm 6 10 mph 1003mb 46f
11:30pm 5 9 mph 1003mb 46f
11:20pm 7 10 mph 1003.4mb 46f
11:10pm 5 7 mph 1003.4mb 46f
11:00pm 2 11 mph 1003.4mb 46f
10:50pm 6 10 mph 1002.7mb 46f
10:40pm 2 7 mph 1003mb 46f
10:30pm 2 10 mph 1002.7mb 46f
10:20pm 6 10 mph 1003mb 46f
10:10pm 5 9 mph 1003.4mb 46f
10:00pm 2 9 mph 1003.7mb 46f
9:50pm 6 9 mph 1003.7mb 46f
9:40pm 5 10 mph 1003.7mb 46f
9:30pm 7 9 mph 1003.7mb 45f
9:20pm 7 9 mph 1003.7mb 45f
9:10pm 5 8 mph 1003.7mb 45f
9:00pm 3 7 mph 1004.1mb 45f
8:50pm 3 7 mph 1004.1mb 45f
8:40pm 5 9 mph 1003.7mb 45f
8:30pm 6 10 mph 1004.1mb 45f
8:20pm 8 11 mph 1004.1mb 45f
8:10pm 7 11 mph 1004.4mb 46f
8:00pm 5 7 mph 1004.7mb 46f
7:50pm 3 8 mph 1004.7mb 45f
7:40pm 6 14 mph 1004.1mb 45f
7:30pm 8 16 mph 1004.4mb 45f
7:20pm 6 17 mph 1004.1mb 45f
7:10pm 8 14 mph 1004.4mb 45f
7:00pm 10 17 mph 1003.7mb 45f
6:50pm 9 17 mph 1004.1mb 45f
6:40pm 10 17 mph 1004.1mb 45f
6:30pm 7 17 mph 1004.1mb 45f
6:20pm 9 14 mph 1004.4mb 45f
6:10pm 9 16 mph 1004.1mb 45f
6:00pm 8 15 mph 1004.4mb 45f
5:50pm 8 15 mph 1004.1mb 45f
5:40pm 10 20 mph 1004.1mb 46f
5:30pm 8 17 mph 1004.1mb 46f
5:20pm 8 17 mph 1003.7mb 46f
5:10pm 8 18 mph 1003.7mb 46f
5:00pm 7 18 mph 1003.7mb 47f
4:50pm 11 17 mph 1003.4mb 47f
4:40pm 7 18 mph 1003.7mb 47f
4:30pm 9 17 mph 1003.7mb 48f
4:20pm 10 17 mph 1003.7mb 48f
4:10pm 10 20 mph 1004.1mb 48f
4:00pm 9 18 mph 1004.1mb 49f
3:50pm 10 17 mph 1004.1mb 49f
3:40pm 9 18 mph 1004.1mb 49f
3:30pm 8 17 mph 1004.1mb 49f
3:20pm 9 21 mph 1004.1mb 49f
3:10pm 13 20 mph 1004.1mb 49f
3:00pm 10 21 mph 1004.1mb 49f
2:50pm 7 21 mph 1004.4mb 49f
2:40pm 9 18 mph 1004.4mb 49f
2:30pm 8 21 mph 1004.1mb 49f
2:20pm 11 20 mph 1004.1mb 50f
2:10pm 8 18 mph 1004.1mb 49f
2:00pm 10 24 mph 1003.7mb 49f
1:50pm 11 25 mph 1003.4mb 48f
1:40pm 11 21 mph 1003.7mb 48f
1:30pm 10 20 mph 1003.4mb 49f
1:20pm 13 26 mph 1003.7mb 48f
1:10pm 10 20 mph 1003.7mb 48f
1:00pm 8 22 mph 1004.1mb 47f
12:50pm 7 21 mph 1003.7mb 47f
12:40pm 11 24 mph 1004.1mb 47f
12:30pm 16 26 mph 1004.1mb 46f
12:20pm 13 21 mph 1004.4mb 46f
12:10pm 13 22 mph 1004.4mb 46f
12:00pm 13 24 mph 1004.4mb 46f
11:50am 11 22 mph 1004.7mb 46f
11:40am 9 18 mph 1005.1mb 46f
11:30am 13 23 mph 1005.4mb 45f
11:20am 5 15 mph 1005.4mb 46f
11:10am 5 14 mph 1005.4mb 46f
11:00am 7 23 mph 1005.4mb 46f
10:50am 15 21 mph 1005.4mb 46f
10:40am 3 17 mph 1005.4mb 46f
10:30am 5 17 mph 1005.8mb 47f
10:20am 9 20 mph 1005.1mb 47f
10:10am 10 20 mph 1004.7mb 47f
10:00am 11 17 mph 1004.7mb 47f
9:50am 10 21 mph 1004.7mb 47f
9:40am 9 20 mph 1004.7mb 47f
9:30am 8 20 mph 1005.1mb 47f
9:20am 11 20 mph 1005.1mb 47f
9:10am 11 23 mph 1004.7mb 47f
9:00am 8 23 mph 1005.1mb 47f
8:50am 13 21 mph 1004.7mb 47f
8:40am 11 21 mph 1005.1mb 47f
8:30am 11 21 mph 1005.1mb 47f
8:20am 10 22 mph 1005.1mb 47f
8:10am 13 23 mph 1005.1mb 47f
8:00am 13 23 mph 1005.1mb 47f
7:50am 14 22 mph 1004.7mb 47f
7:40am 9 22 mph 1005.1mb 47f
7:30am 10 24 mph 1004.7mb 47f
7:20am 11 26 mph 1005.1mb 47f
7:10am 10 22 mph 1005.8mb 46f
7:00am 9 20 mph 1006.1mb 46f
6:50am 8 18 mph 1005.8mb 46f
6:40am 11 22 mph 1005.4mb 46f
6:30am 8 21 mph 1005.1mb 45f
6:20am 9 24 mph 1005.4mb 45f
6:10am 11 23 mph 1005.8mb 45f
6:00am 9 23 mph 1005.4mb 44f
5:50am 10 24 mph 1005.4mb 44f
5:40am 10 26 mph 1005.1mb 44f
5:30am 13 25 mph 1005.4mb 44f
5:20am 13 24 mph 1005.8mb 44f
5:10am 10 23 mph 1006.1mb 44f
5:00am 9 25 mph 1006.4mb 44f
4:50am 7 20 mph 1006.8mb 43f
4:40am 10 21 mph 1006.8mb 44f
4:30am 8 18 mph 1007.1mb 44f
4:20am 8 20 mph 1006.8mb 43f
4:10am 9 18 mph 1007.1mb 43f
4:00am 10 17 mph 1007.5mb 43f
3:50am 7 14 mph 1007.8mb 43f
3:40am 7 13 mph 1008.1mb 43f
3:30am 5 9 mph 1008.8mb 43f
3:20am 5 11 mph 1009.1mb 43f
3:10am 6 15 mph 1009.5mb 43f
3:00am 9 17 mph 1009.1mb 43f
2:50am 9 18 mph 1008.8mb 43f
2:40am 7 20 mph 1009.1mb 44f
2:30am 9 18 mph 1008.5mb 45f
2:20am 8 15 mph 1008.5mb 45f
2:10am 2 7 mph 1009.5mb 44f
2:00am 6 14 mph 1009.5mb 44f
1:50am 5 14 mph 1009.5mb 44f
1:40am 5 15 mph 1009.5mb 43f
1:30am 5 11 mph 1009.8mb 43f
1:20am 1 8 mph 1009.8mb 43f
1:10am 3 8 mph 1010.2mb 43f
1:00am 5 10 mph 1009.5mb 42f
12:50am 5 9 mph 1010.2mb 42f
12:40am 3 11 mph 1009.5mb 42f
12:30am 7 11 mph 1009.1mb 42f
12:20am 6 11 mph 1008.8mb 41f
12:10am 2 9 mph 1008.8mb 41f
12:00am 7 17 mph 1008.8mb 42f
Sun 10/26 11:40pm 7 17 mph 1009.1mb 42f
11:30pm 13 22 mph 1009.1mb 42f
11:20pm 8 24 mph 1009.1mb 42f
11:10pm 10 21 mph 1009.5mb 42f
11:00pm 10 22 mph 1009.8mb 42f
10:50pm 10 22 mph 1009.8mb 42f
10:40pm 11 20 mph 1010.2mb 42f
10:30pm 13 20 mph 1010.5mb 42f
10:20pm 11 22 mph 1010.2mb 42f
10:10pm 10 20 mph 1010.8mb 41f
10:00pm 10 20 mph 1010.8mb 41f
9:50pm 10 20 mph 1010.8mb 41f
9:40pm 9 17 mph 1011.2mb 41f
9:30pm 9 20 mph 1011.2mb 41f
9:20pm 8 15 mph 1011.5mb 41f
9:10pm 8 17 mph 1011.5mb 41f
9:00pm 8 17 mph 1011.9mb 41f
8:50pm 7 15 mph 1011.5mb 41f
8:40pm 8 17 mph 1011.9mb 42f
8:30pm 6 16 mph 1012.2mb 42f
8:20pm 8 13 mph 1011.9mb 42f
8:10pm 9 17 mph 1012.2mb 42f
8:00pm 5 13 mph 1012.2mb 42f
7:50pm 7 9 mph 1011.9mb 41f
7:40pm 3 8 mph 1012.2mb 41f
7:30pm 6 9 mph 1012.5mb 41f
7:20pm 3 8 mph 1012.5mb 40f
7:10pm 5 6 mph 1012.5mb 38f
7:00pm 3 6 mph 1012.5mb 39f
6:50pm 3 5 mph 1012.5mb 39f
6:40pm 2 3 mph 1012.5mb 39f
6:30pm 3 5 mph 1012.5mb 40f
6:20pm 3
mph
1012.5mb 41f
6:10pm 2 3 mph 1012.5mb 41f
6:00pm 3
mph
1012.5mb 42f
5:50pm 1 2 mph 1012.5mb 42f
5:40pm 1 2 mph 1012.9mb 43f
5:30pm  -  2 mph 1012.5mb 44f
5:20pm 1 2 mph 1012.9mb 45f
5:10pm  -  2 mph 1012.9mb 44f
5:00pm 2 5 mph 1012.9mb 44f
4:50pm 3 5 mph 1012.9mb 44f
4:40pm 2 3 mph 1012.9mb 45f
4:30pm 2 3 mph 1012.9mb 45f
4:20pm 3 5 mph 1012.9mb 47f
4:10pm 2 3 mph 1013.2mb 48f
4:00pm 3
mph
1013.2mb 49f
3:50pm 1 3 mph 1013.2mb 47f
3:40pm 2
mph
1013.2mb 47f